createdAt,value
2022-12-08T00:05:32.441Z,174.73
2022-12-08T00:10:51.550Z,193.10
2022-12-08T00:16:01.337Z,164.52
2022-12-08T00:21:06.843Z,174.10
2022-12-08T00:26:10.709Z,168.10
2022-12-08T00:31:14.670Z,175.25
2022-12-08T00:36:20.057Z,170.00
2022-12-08T00:41:39.449Z,176.68
2022-12-08T00:46:43.477Z,180.93
2022-12-08T00:51:48.753Z,175.93
2022-12-08T00:56:52.978Z,179.20
2022-12-08T01:01:56.844Z,176.48
2022-12-08T01:07:02.554Z,187.82
2022-12-08T01:12:07.418Z,116.55
2022-12-08T01:17:11.382Z,171.93
2022-12-08T01:22:16.704Z,181.95
2022-12-08T01:27:20.581Z,119.35
2022-12-08T01:32:24.466Z,194.10
2022-12-08T01:37:30.915Z,190.40
2022-12-08T01:42:35.081Z,222.52
2022-12-08T01:47:41.791Z,189.05
2022-12-08T01:52:49.729Z,220.40
2022-12-08T01:57:58.460Z,201.35
2022-12-08T02:03:04.444Z,195.68
2022-12-08T02:08:12.199Z,222.02
2022-12-08T02:13:17.414Z,203.40
2022-12-08T02:18:33.221Z,221.50
2022-12-08T02:23:47.813Z,187.20
2022-12-08T02:29:09.676Z,193.05
2022-12-08T02:34:29.175Z,191.40
2022-12-08T02:39:38.445Z,201.80
2022-12-08T02:44:46.874Z,191.30
2022-12-08T02:49:52.097Z,193.23
2022-12-08T02:54:59.236Z,202.50
2022-12-08T03:00:09.243Z,207.52
2022-12-08T03:05:24.970Z,195.88
2022-12-08T03:10:32.529Z,192.82
2022-12-08T03:15:36.926Z,194.77
2022-12-08T03:20:42.598Z,184.82
2022-12-08T03:25:51.381Z,196.50
2022-12-08T03:30:57.237Z,196.55
2022-12-08T03:36:03.402Z,205.02
2022-12-08T03:41:19.632Z,212.63
2022-12-08T03:51:29.270Z,195.35
2022-12-08T03:56:35.140Z,123.13
2022-12-08T04:06:43.954Z,211.10
2022-12-08T04:11:47.836Z,195.18
2022-12-08T04:16:51.654Z,193.30
2022-12-08T04:21:57.054Z,203.13
2022-12-08T04:27:00.954Z,209.15
2022-12-08T04:32:05.229Z,219.02
2022-12-08T04:37:10.546Z,211.02
2022-12-08T04:42:14.433Z,143.80
2022-12-08T04:47:18.351Z,205.95
2022-12-08T04:52:23.793Z,208.55
2022-12-08T04:57:27.801Z,213.98
2022-12-08T05:02:32.765Z,217.73
2022-12-08T05:07:38.222Z,236.73
2022-12-08T05:12:42.225Z,213.55
2022-12-08T05:17:46.150Z,220.30
2022-12-08T05:22:51.444Z,214.00
2022-12-08T05:28:06.200Z,159.70
2022-12-08T05:33:15.606Z,218.98
2022-12-08T05:38:20.914Z,221.63
2022-12-08T05:43:24.841Z,160.40
2022-12-08T05:48:28.773Z,220.23
2022-12-08T05:53:34.204Z,228.73
2022-12-08T05:58:38.163Z,228.02
2022-12-08T06:03:42.037Z,219.68
2022-12-08T06:08:47.249Z,237.68
2022-12-08T06:13:51.526Z,182.30
2022-12-08T06:18:55.640Z,220.10
2022-12-08T06:24:00.952Z,238.60
2022-12-08T06:29:05.128Z,227.65
2022-12-08T06:34:09.040Z,227.30
2022-12-08T06:39:14.298Z,224.32
2022-12-08T06:44:18.193Z,185.52
2022-12-08T06:49:22.138Z,223.57
2022-12-08T06:54:27.793Z,219.48
2022-12-08T06:59:31.674Z,214.57
2022-12-08T07:04:35.590Z,229.50
2022-12-08T07:09:40.813Z,248.70
2022-12-08T07:14:44.709Z,216.98
2022-12-08T07:19:48.617Z,220.68
2022-12-08T07:24:53.832Z,247.02
2022-12-08T07:29:57.657Z,220.47
2022-12-08T07:35:01.653Z,235.23
2022-12-08T07:40:08.329Z,223.57
2022-12-08T07:45:12.803Z,225.85
2022-12-08T07:50:16.510Z,230.35
2022-12-08T07:55:21.677Z,222.05
2022-12-08T08:00:25.862Z,199.60
2022-12-08T08:05:29.929Z,247.82
2022-12-08T08:10:35.219Z,224.50
2022-12-08T08:15:39.232Z,229.57
2022-12-08T08:20:43.356Z,238.30
2022-12-08T08:25:48.750Z,240.82
2022-12-08T08:30:52.630Z,236.73
2022-12-08T08:35:56.807Z,222.38
2022-12-08T08:41:03.089Z,224.10
2022-12-08T08:46:09.043Z,236.75
2022-12-08T08:51:15.516Z,223.40
2022-12-08T08:56:21.450Z,217.90
2022-12-08T09:01:26.855Z,220.02
2022-12-08T09:06:30.816Z,231.20
2022-12-08T09:11:36.256Z,218.80
2022-12-08T09:16:42.438Z,209.85
2022-12-08T09:21:46.588Z,197.35
2022-12-08T09:26:51.851Z,201.90
2022-12-08T09:31:56.528Z,202.15
2022-12-08T09:37:00.454Z,195.68
2022-12-08T09:42:07.551Z,187.82
2022-12-08T09:47:18.313Z,191.20
2022-12-08T09:52:25.771Z,192.23
2022-12-08T09:57:32.126Z,184.63
2022-12-08T10:02:36.034Z,178.25
2022-12-08T10:07:44.856Z,168.88
2022-12-08T10:12:54.490Z,116.70
2022-12-08T10:18:00.782Z,118.03
2022-12-08T10:23:10.039Z,86.05
2022-12-08T10:28:15.643Z,47.83
2022-12-08T10:33:21.545Z,60.88
2022-12-08T10:43:33.593Z,36.58
2022-12-08T10:48:37.420Z,112.95
2022-12-08T10:53:47.353Z,114.40
2022-12-08T10:59:07.090Z,15.05
2022-12-08T11:04:15.641Z,55.25
2022-12-08T11:09:32.631Z,112.05
2022-12-08T11:14:48.570Z,169.02
2022-12-08T11:19:58.020Z,86.20
2022-12-08T11:25:04.122Z,11.60
2022-12-08T11:30:15.583Z,69.93
2022-12-08T11:35:24.669Z,67.22
2022-12-08T11:40:32.423Z,181.82
2022-12-08T11:45:37.859Z,132.70
2022-12-08T11:50:45.026Z,176.02
2022-12-08T11:55:52.175Z,151.88
2022-12-08T12:00:58.123Z,180.43
2022-12-08T12:11:49.663Z,172.18
2022-12-08T12:17:02.928Z,142.83
2022-12-08T12:22:14.098Z,177.13
2022-12-08T12:27:25.066Z,135.13
2022-12-08T12:32:42.774Z,168.57
2022-12-08T12:37:48.087Z,133.18
2022-12-08T12:43:14.329Z,150.10
2022-12-08T12:48:28.511Z,144.73
2022-12-08T12:53:48.258Z,217.27
2022-12-08T12:58:55.347Z,168.60
2022-12-08T13:04:07.542Z,136.98
2022-12-08T13:09:23.223Z,129.27
2022-12-08T13:14:33.250Z,191.95
2022-12-08T13:19:40.425Z,133.82
2022-12-08T13:24:44.466Z,82.93
2022-12-08T13:30:26.764Z,166.13
2022-12-08T13:35:32.315Z,120.25
2022-12-08T13:40:37.981Z,195.50
2022-12-08T14:02:12.362Z,148.43
2022-12-08T14:07:17.714Z,176.00
2022-12-08T14:12:23.953Z,34.15
2022-12-08T14:17:27.942Z,172.43
2022-12-08T14:22:38.168Z,148.73
2022-12-08T14:27:42.078Z,96.43
2022-12-08T14:32:48.637Z,115.25
2022-12-08T14:37:56.533Z,160.32
2022-12-08T14:43:14.119Z,206.15
2022-12-08T14:48:22.934Z,174.85
2022-12-08T14:53:31.388Z,218.77
2022-12-08T14:58:35.565Z,177.95
2022-12-08T15:03:39.423Z,195.15
2022-12-08T15:08:56.156Z,120.05
2022-12-08T15:14:00.281Z,121.80
2022-12-08T15:19:09.718Z,88.78
2022-12-08T15:24:19.722Z,106.43
2022-12-08T15:29:25.226Z,160.32
2022-12-08T15:34:29.112Z,173.55
2022-12-08T15:39:37.691Z,149.77
2022-12-08T15:44:41.923Z,169.45
2022-12-08T15:49:45.920Z,203.65
2022-12-08T15:54:51.508Z,145.95
2022-12-08T15:59:55.396Z,140.52
2022-12-08T16:10:26.534Z,142.65
2022-12-08T16:15:59.850Z,168.98
2022-12-08T16:21:45.546Z,161.55
2022-12-08T16:27:28.495Z,122.35
2022-12-08T16:31:51.955Z,7.67
2022-12-08T16:36:55.866Z,123.07
2022-12-08T16:42:18.390Z,146.27
2022-12-08T16:47:22.276Z,174.93
2022-12-08T16:52:26.222Z,172.88
2022-12-08T16:57:31.514Z,149.95
2022-12-08T17:02:36.795Z,172.82
2022-12-08T17:07:40.749Z,161.82
2022-12-08T17:12:46.171Z,192.60
2022-12-08T17:17:50.310Z,182.05
2022-12-08T17:22:55.277Z,163.00
2022-12-08T17:28:00.558Z,104.90
2022-12-08T17:33:04.599Z,199.57
2022-12-08T17:38:08.441Z,155.80
2022-12-08T17:43:14.287Z,186.23
2022-12-08T17:53:21.771Z,176.63
2022-12-08T17:58:27.322Z,174.23
2022-12-08T18:03:31.172Z,217.10
2022-12-08T18:08:35.082Z,202.80
2022-12-08T18:13:40.346Z,190.02
2022-12-08T18:18:44.396Z,113.53
2022-12-08T18:23:48.269Z,188.57
2022-12-08T18:28:53.658Z,194.60
2022-12-08T18:33:57.535Z,191.18
2022-12-08T18:39:05.724Z,207.45
2022-12-08T18:44:14.180Z,192.45
2022-12-08T18:49:20.569Z,189.40
2022-12-08T18:54:37.125Z,184.48
2022-12-08T18:59:49.912Z,204.38
2022-12-08T19:04:56.656Z,202.25
2022-12-08T19:10:00.883Z,210.70
2022-12-08T19:15:06.990Z,197.63
2022-12-08T19:20:12.011Z,231.43
2022-12-08T19:25:15.923Z,185.65
2022-12-08T19:30:21.256Z,222.65
2022-12-08T19:35:25.365Z,196.88
2022-12-08T19:40:46.787Z,198.23
2022-12-08T19:45:52.192Z,196.82
2022-12-08T19:50:56.238Z,233.23
2022-12-08T19:56:00.402Z,210.88
2022-12-08T20:01:05.825Z,201.60
2022-12-08T20:06:14.929Z,217.07
2022-12-08T20:11:18.829Z,216.93
2022-12-08T20:16:24.456Z,217.30
2022-12-08T20:21:28.614Z,212.02
2022-12-08T20:26:32.602Z,215.50
2022-12-08T20:31:37.975Z,216.38
2022-12-08T20:36:42.002Z,207.25
2022-12-08T20:41:47.445Z,220.25
2022-12-08T20:46:52.849Z,214.23
2022-12-08T20:51:56.974Z,200.15
2022-12-08T20:57:01.123Z,218.35
2022-12-08T21:02:06.478Z,207.25
2022-12-08T21:07:10.976Z,206.63
2022-12-08T21:12:15.059Z,212.50
2022-12-08T21:17:20.479Z,221.10
2022-12-08T21:22:24.499Z,208.82
2022-12-08T21:27:28.493Z,210.00
2022-12-08T21:32:33.915Z,207.82
2022-12-08T21:37:38.035Z,206.98
2022-12-08T21:42:45.042Z,211.07
2022-12-08T21:47:51.172Z,212.85
2022-12-08T21:52:55.348Z,213.90
2022-12-08T21:58:00.978Z,205.05
2022-12-08T22:13:15.810Z,208.00
2022-12-08T22:18:21.181Z,201.63
2022-12-08T22:23:25.714Z,192.40
2022-12-08T22:28:33.533Z,204.10
2022-12-08T22:33:38.940Z,209.57
2022-12-08T22:38:43.024Z,210.65
2022-12-08T22:43:47.389Z,223.55
2022-12-08T22:48:53.387Z,216.48
2022-12-08T22:53:57.401Z,229.38
2022-12-08T22:59:01.462Z,280.38
2022-12-08T23:04:08.339Z,228.40
2022-12-08T23:09:15.480Z,261.65
2022-12-08T23:14:19.410Z,242.25
2022-12-08T23:19:24.741Z,226.40
2022-12-08T23:24:28.703Z,226.15
2022-12-08T23:29:32.553Z,272.50
2022-12-08T23:34:37.974Z,215.98
2022-12-08T23:39:42.214Z,205.77
2022-12-08T23:44:46.115Z,217.45
2022-12-08T23:49:51.582Z,212.60
2022-12-08T23:54:55.809Z,179.80
2022-12-08T23:59:59.763Z,215.57
